Time;durP1;ratioP1;P1;durP2;ratioP2;P2;SDS_P1;SDS_P2;PMS_P1;PMS_P2;Temp;Humidity;BMP_temperature;BMP_pressure;BME280_temperature;BME280_humidity;BME280_pressure;Samples;Min_cycle;Max_cycle;Signal;HPM_P1;HPM_P2
2023/10/09 00:03:01;;;;;;;32.70;30.23;;;14.00;99.90;;;;;;6155792;23;20021;-84
2023/10/09 00:05:45;;;;;;;31.90;29.27;;;14.00;99.90;;;;;;6156537;23;20013;-84
2023/10/09 00:08:34;;;;;;;33.42;30.58;;;13.60;99.90;;;;;;6130999;23;20017;-84
2023/10/09 00:11:15;;;;;;;21.77;19.75;;;14.30;99.90;;;;;;6155340;23;20529;-84
2023/10/09 00:13:52;;;;;;;29.95;27.35;;;14.00;99.90;;;;;;6131613;23;20448;-85
2023/10/09 00:16:33;;;;;;;29.13;26.20;;;14.10;99.90;;;;;;6131472;23;20021;-85
2023/10/09 00:21:45;;;;;;;29.00;26.20;;;14.00;99.90;;;;;;6157115;23;20022;-84
2023/10/09 00:24:21;;;;;;;25.45;23.00;;;14.00;99.90;;;;;;6156855;23;20009;-84
2023/10/09 00:26:47;;;;;;;24.73;22.13;;;14.10;99.90;;;;;;6132570;23;20366;-84
2023/10/09 00:29:21;;;;;;;25.67;23.23;;;13.90;99.90;;;;;;6131561;23;20012;-84
2023/10/09 00:32:13;;;;;;;29.25;26.58;;;14.00;99.90;;;;;;6156054;23;20018;-84
2023/10/09 00:34:41;;;;;;;35.05;31.48;;;14.00;99.90;;;;;;6156015;23;20017;-84
2023/10/09 00:37:16;;;;;;;33.97;30.67;;;14.20;99.90;;;;;;6155510;23;20017;-84
2023/10/09 00:39:47;;;;;;;29.05;21.90;;;14.00;99.90;;;;;;6131983;23;20388;-84
2023/10/09 00:42:25;;;;;;;24.00;21.20;;;14.00;99.90;;;;;;6130705;23;20065;-84
2023/10/09 00:44:51;;;;;;;31.88;28.75;;;14.20;99.90;;;;;;6155081;23;20009;-85
2023/10/09 00:47:21;;;;;;;32.70;29.60;;;14.00;99.90;;;;;;6155606;23;20018;-85
2023/10/09 00:49:58;;;;;;;27.88;24.90;;;14.10;99.90;;;;;;6155500;23;20444;-84
2023/10/09 00:52:31;;;;;;;25.98;22.60;;;14.10;99.90;;;;;;6130486;23;20066;-84
2023/10/09 00:55:04;;;;;;;31.75;27.50;;;14.10;99.90;;;;;;6130905;23;20013;-84
2023/10/09 00:57:34;;;;;;;33.92;30.58;;;14.10;99.90;;;;;;6131808;23;20022;-84
2023/10/09 01:00:00;;;;;;;34.92;31.23;;;14.10;99.90;;;;;;6155022;23;20475;-85
2023/10/09 01:02:35;;;;;;;32.55;29.23;;;14.10;99.90;;;;;;6155588;23;20013;-85
2023/10/09 01:05:19;;;;;;;39.75;35.72;;;14.10;99.90;;;;;;6131562;23;20016;-84
2023/10/09 01:07:47;;;;;;;31.13;24.77;;;14.10;99.90;;;;;;6131322;23;20020;-84
2023/10/09 01:10:16;;;;;;;33.97;29.77;;;14.10;99.90;;;;;;6130828;23;20018;-85
2023/10/09 01:12:44;;;;;;;42.15;38.03;;;14.10;99.90;;;;;;6155676;23;20017;-84
2023/10/09 01:15:36;;;;;;;36.25;32.35;;;14.10;99.90;;;;;;6155178;23;20017;-84
2023/10/09 01:17:58;;;;;;;38.72;30.65;;;14.20;99.90;;;;;;6155117;23;20154;-84
2023/10/09 01:20:30;;;;;;;38.60;34.47;;;14.10;99.90;;;;;;6155171;23;20588;-84
2023/10/09 01:22:55;;;;;;;34.42;26.55;;;14.10;99.90;;;;;;6154299;23;20017;-84
2023/10/09 01:25:21;;;;;;;44.88;40.13;;;14.10;99.90;;;;;;6155590;23;20010;-85
2023/10/09 01:27:47;;;;;;;40.90;36.05;;;14.10;99.90;;;;;;6155170;23;20029;-84
2023/10/09 01:30:16;;;;;;;32.70;24.02;;;14.50;99.90;;;;;;6155747;23;20009;-85
2023/10/09 01:32:45;;;;;;;33.42;28.45;;;14.10;99.90;;;;;;6154664;23;20021;-84
2023/10/09 01:35:23;;;;;;;34.35;29.55;;;14.10;99.90;;;;;;6130491;23;20024;-84
2023/10/09 01:37:51;;;;;;;37.85;32.13;;;14.10;99.90;;;;;;6130048;23;20091;-84
2023/10/09 01:40:27;;;;;;;38.75;32.25;;;13.80;99.90;;;;;;6130761;23;20017;-84
2023/10/09 01:42:53;;;;;;;38.60;29.85;;;14.10;99.90;;;;;;6153981;23;20013;-84
2023/10/09 01:47:51;;;;;;;46.80;40.63;;;14.10;99.90;;;;;;6156905;23;20025;-84
2023/10/09 01:50:26;;;;;;;44.63;38.15;;;14.00;99.90;;;;;;6155965;23;20353;-84
2023/10/09 01:52:52;;;;;;;53.95;39.78;;;14.00;99.90;;;;;;6155305;23;20487;-84
2023/10/09 01:55:34;;;;;;;47.72;34.85;;;14.00;99.90;;;;;;6155615;23;20021;-84
2023/10/09 02:00:49;;;;;;;42.58;35.90;;;14.00;99.90;;;;;;6155272;23;20023;-84
2023/10/09 02:03:15;;;;;;;56.58;38.95;;;14.00;99.90;;;;;;6130298;23;20353;-84
2023/10/09 02:05:44;;;;;;;47.92;37.42;;;13.30;99.90;;;;;;6155530;23;20010;-84
2023/10/09 02:08:13;;;;;;;42.08;33.97;;;14.00;99.90;;;;;;6155360;23;20092;-84
2023/10/09 02:10:39;;;;;;;55.95;37.80;;;14.00;99.90;;;;;;6130694;23;20013;-85
2023/10/09 02:13:06;;;;;;;45.30;35.45;;;14.00;99.90;;;;;;6130146;23;20169;-85
2023/10/09 02:18:26;;;;;;;46.30;39.10;;;13.90;99.90;;;;;;6121153;23;20353;-84
2023/10/09 02:26:25;;;;;;;45.30;30.73;;;13.90;99.90;;;;;;6155382;23;20025;-84
2023/10/09 02:29:15;;;;;;;47.00;33.78;;;14.00;99.90;;;;;;6155732;23;20041;-84
2023/10/09 02:31:44;;;;;;;47.42;29.48;;;14.00;99.90;;;;;;6154951;23;20388;-84
2023/10/09 02:34:10;;;;;;;45.05;39.60;;;14.00;99.90;;;;;;6154711;23;20103;-84
2023/10/09 02:36:43;;;;;;;42.22;28.40;;;14.00;99.90;;;;;;6130451;23;20013;-84
2023/10/09 02:39:22;;;;;;;41.53;35.50;;;14.00;99.90;;;;;;6129987;23;20095;-84
2023/10/09 02:42:19;;;;;;;40.03;33.80;;;13.90;99.90;;;;;;6154065;23;20021;-84
2023/10/09 02:44:49;;;;;;;54.45;42.70;;;13.90;99.90;;;;;;6154400;23;20057;-84
2023/10/09 02:47:29;;;;;;;44.95;39.08;;;13.90;99.90;;;;;;6155063;23;20377;-84
2023/10/09 02:50:06;;;;;;;48.60;36.70;;;13.90;99.90;;;;;;6155225;23;20009;-84
2023/10/09 02:52:40;;;;;;;45.40;35.40;;;13.90;99.90;;;;;;6131317;23;20021;-84
2023/10/09 02:55:12;;;;;;;44.92;38.45;;;13.90;99.90;;;;;;6130072;23;20041;-85
2023/10/09 02:57:41;;;;;;;46.08;35.75;;;13.90;99.90;;;;;;6154931;23;20018;-84
2023/10/09 03:00:18;;;;;;;54.25;38.90;;;13.90;99.90;;;;;;6129888;23;20037;-85
2023/10/09 03:02:49;;;;;;;41.10;30.33;;;13.80;99.90;;;;;;6129658;23;20020;-84
2023/10/09 03:05:16;;;;;;;49.10;39.95;;;13.80;99.90;;;;;;6155919;23;20014;-84
2023/10/09 03:07:42;;;;;;;44.72;33.78;;;13.90;99.90;;;;;;6154557;23;20014;-84
2023/10/09 03:10:10;;;;;;;45.35;34.92;;;13.90;99.90;;;;;;6153821;23;20017;-84
2023/10/09 03:12:36;;;;;;;50.42;34.47;;;13.90;99.90;;;;;;6129819;23;20017;-84
2023/10/09 03:15:07;;;;;;;49.83;37.08;;;13.90;99.90;;;;;;6130242;23;20105;-83
2023/10/09 03:17:34;;;;;;;55.05;37.58;;;13.90;99.90;;;;;;6129933;23;20051;-85
2023/10/09 03:20:17;;;;;;;45.92;40.80;;;13.90;99.90;;;;;;6129871;23;20010;-84
2023/10/09 03:22:44;;;;;;;50.80;42.53;;;13.90;99.90;;;;;;6130088;23;20326;-85
2023/10/09 03:25:14;;;;;;;50.45;35.42;;;13.90;99.90;;;;;;6130528;23;20010;-84
2023/10/09 03:27:47;;;;;;;49.95;38.00;;;13.90;99.90;;;;;;6154955;23;20013;-84
2023/10/09 03:30:23;;;;;;;53.03;47.27;;;13.90;99.90;;;;;;6154863;23;20020;-84
2023/10/09 03:32:53;;;;;;;53.90;35.42;;;14.00;99.90;;;;;;6155087;23;20352;-85
2023/10/09 03:35:26;;;;;;;47.53;37.28;;;14.00;99.90;;;;;;6130123;23;20360;-84
2023/10/09 03:38:00;;;;;;;58.28;43.60;;;14.00;99.90;;;;;;6154919;23;20495;-84
2023/10/09 03:40:25;;;;;;;;;;;14.00;99.90;;;;;;6154923;23;20006;-84
2023/10/09 03:42:52;;;;;;;63.90;45.92;;;14.10;99.90;;;;;;6129139;23;19977;-84
2023/10/09 03:45:25;;;;;;;60.20;38.30;;;14.10;99.90;;;;;;6153880;23;20021;-83
2023/10/09 03:48:11;;;;;;;57.22;48.90;;;14.10;99.90;;;;;;6154130;23;20060;-84
2023/10/09 03:50:38;;;;;;;50.10;33.30;;;14.10;99.90;;;;;;6154154;23;20013;-84
2023/10/09 03:53:07;;;;;;;57.65;37.15;;;14.10;99.90;;;;;;6154075;23;20049;-84
2023/10/09 03:55:34;;;;;;;55.78;38.95;;;14.20;99.90;;;;;;6129549;23;20029;-85
2023/10/09 03:58:00;;;;;;;55.33;37.75;;;14.20;99.90;;;;;;6130283;23;20013;-84
2023/10/09 04:00:28;;;;;;;57.25;43.40;;;14.20;99.90;;;;;;6130055;23;20036;-84
2023/10/09 04:02:56;;;;;;;55.13;40.05;;;14.20;99.90;;;;;;6153991;23;20411;-85
2023/10/09 04:05:23;;;;;;;60.35;33.63;;;14.20;99.90;;;;;;6130288;23;20013;-84
2023/10/09 04:07:49;;;;;;;57.10;39.42;;;14.30;99.90;;;;;;6154158;23;20056;-84
2023/10/09 04:10:43;;;;;;;62.75;43.75;;;14.30;99.90;;;;;;6129810;23;20017;-85
2023/10/09 04:13:17;;;;;;;60.97;37.53;;;14.30;99.90;;;;;;6154760;23;20018;-85
2023/10/09 04:15:43;;;;;;;57.60;39.03;;;14.40;99.90;;;;;;6129595;23;20026;-84
2023/10/09 04:18:14;;;;;;;58.63;38.25;;;14.40;99.90;;;;;;6154579;23;20362;-84
2023/10/09 04:21:08;;;;;;;62.78;34.50;;;14.40;99.90;;;;;;6130043;23;20517;-83
2023/10/09 04:23:52;;;;;;;66.10;42.40;;;14.50;99.90;;;;;;6154650;23;20093;-85
2023/10/09 04:26:21;;;;;;;57.03;36.92;;;14.40;99.90;;;;;;6155568;23;20072;-85
2023/10/09 04:28:51;;;;;;;63.30;45.45;;;14.40;99.90;;;;;;6131475;23;20010;-84
2023/10/09 04:31:19;;;;;;;64.20;38.05;;;14.50;99.90;;;;;;6155667;23;20013;-84
2023/10/09 04:33:46;;;;;;;67.20;42.67;;;14.40;99.90;;;;;;6155324;23;20016;-84
2023/10/09 04:41:33;;;;;;;59.17;37.13;;;14.50;99.90;;;;;;6154672;23;20022;-84
2023/10/09 04:46:44;;;;;;;61.28;37.60;;;14.50;99.90;;;;;;6154398;23;20029;-84
2023/10/09 04:49:28;;;;;;;62.03;35.83;;;14.50;99.90;;;;;;6129374;23;20005;-84
2023/10/09 04:52:18;;;;;;;63.42;37.15;;;14.50;99.90;;;;;;6154287;23;20444;-84
2023/10/09 04:57:29;;;;;;;54.72;37.78;;;14.50;99.90;;;;;;6154679;23;20025;-84
2023/10/09 04:59:58;;;;;;;64.70;38.42;;;14.60;99.90;;;;;;6154059;23;20013;-84
2023/10/09 05:02:36;;;;;;;64.45;39.15;;;14.60;99.90;;;;;;6129815;23;20017;-84
2023/10/09 05:05:47;;;;;;;57.67;35.60;;;14.60;99.90;;;;;;6129478;23;20017;-84
2023/10/09 05:08:19;;;;;;;68.88;38.28;;;14.60;99.90;;;;;;6154989;23;20017;-84
2023/10/09 05:16:13;;;;;;;56.85;39.10;;;14.60;99.90;;;;;;6154188;23;20018;-84
2023/10/09 05:18:39;;;;;;;66.22;38.45;;;14.90;99.90;;;;;;6153567;23;20089;-84
2023/10/09 05:24:10;;;;;;;65.00;42.80;;;14.70;99.90;;;;;;6153126;23;20176;-84
2023/10/09 05:26:50;;;;;;;56.10;34.55;;;14.80;99.90;;;;;;6152509;23;20396;-84
2023/10/09 05:37:25;;;;;;;56.53;35.60;;;14.80;99.90;;;;;;6150643;23;20017;-84
2023/10/09 05:46:07;;;;;;;56.85;36.17;;;14.80;99.90;;;;;;6151136;23;20022;-84
2023/10/09 05:48:48;;;;;;;57.85;36.97;;;14.90;99.90;;;;;;6150656;23;20013;-85
2023/10/09 05:51:12;;;;;;;49.30;31.98;;;14.90;99.90;;;;;;6150846;23;20013;-83
2023/10/09 06:04:15;;;;;;;50.88;33.17;;;15.10;99.90;;;;;;6150934;23;20021;-82
2023/10/09 06:06:55;;;;;;;48.53;29.92;;;15.00;99.90;;;;;;6125653;23;20345;-83
2023/10/09 06:11:49;;;;;;;40.88;28.00;;;15.10;99.90;;;;;;6150050;23;20096;-83
2023/10/09 06:14:57;;;;;;;44.63;31.15;;;15.10;99.90;;;;;;6126006;23;20013;-83
2023/10/09 06:19:43;;;;;;;37.15;23.95;;;15.10;99.90;;;;;;6149593;23;20059;-83
2023/10/09 06:22:56;;;;;;;40.80;27.40;;;15.20;99.90;;;;;;6150006;23;20444;-83
2023/10/09 06:24:57;;;;;;;39.20;25.67;;;15.30;99.90;;;;;;6149930;23;20014;-82
2023/10/09 06:35:30;;;;;;;40.08;25.40;;;15.30;99.90;;;;;;6150627;23;20104;-83
2023/10/09 06:45:55;;;;;;;31.13;19.42;;;15.50;99.90;;;;;;6154289;23;20021;-83
2023/10/09 06:58:58;;;;;;;33.13;25.90;;;15.50;99.90;;;;;;6154362;23;20017;-83
2023/10/09 07:01:39;;;;;;;28.55;18.55;;;15.60;99.90;;;;;;6128967;23;20020;-82
2023/10/09 07:06:56;;;;;;;33.88;22.65;;;15.60;99.90;;;;;;6154370;23;20020;-83
2023/10/09 07:09:22;;;;;;;29.77;20.00;;;15.60;99.90;;;;;;6154276;23;20009;-82
2023/10/09 07:16:57;;;;;;;30.13;19.63;;;15.60;99.90;;;;;;6153535;23;20083;-81
2023/10/09 07:19:57;;;;;;;30.00;21.20;;;15.60;99.90;;;;;;6154124;23;20464;-81
2023/10/09 07:24:57;;;;;;;31.52;20.50;;;15.60;99.90;;;;;;6154257;23;20204;-81
2023/10/09 07:32:54;;;;;;;31.50;20.23;;;15.70;99.90;;;;;;6180568;23;20100;-81
2023/10/09 07:38:07;;;;;;;33.03;21.63;;;15.70;99.90;;;;;;6154069;23;20013;-82
2023/10/09 07:40:51;;;;;;;25.77;16.98;;;15.70;99.90;;;;;;6180922;23;20020;-82
2023/10/09 07:43:18;;;;;;;28.15;19.55;;;15.70;99.90;;;;;;6180689;23;20345;-82
2023/10/09 07:48:26;;;;;;;23.70;15.18;;;15.80;99.90;;;;;;6153666;23;20013;-82
2023/10/09 07:50:57;;;;;;;27.20;15.13;;;15.80;99.90;;;;;;6129755;23;20075;-82
2023/10/09 07:53:26;;;;;;;25.98;15.30;;;15.90;99.90;;;;;;6154357;23;20432;-82
2023/10/09 07:55:58;;;;;;;29.75;18.27;;;15.90;99.90;;;;;;6154379;23;20017;-82
2023/10/09 07:58:28;;;;;;;29.27;17.58;;;15.90;99.90;;;;;;6155393;23;20017;-82
2023/10/09 08:01:16;;;;;;;33.00;23.85;;;15.90;99.90;;;;;;6182196;23;20010;-82
2023/10/09 08:06:53;;;;;;;30.38;14.50;;;15.90;99.90;;;;;;6066491;23;20066;-82
2023/10/09 08:09:28;;;;;;;32.28;17.20;;;15.90;99.90;;;;;;6066818;23;20374;-82
2023/10/09 08:15:12;;;;;;;38.00;20.38;;;16.00;99.90;;;;;;6008798;23;20023;-82
2023/10/09 08:17:38;;;;;;;;;;;16.00;99.90;;;;;;6010332;23;20030;-82
2023/10/09 08:20:17;;;;;;;33.60;23.90;;;16.00;99.90;;;;;;6010113;23;19914;-82
2023/10/09 08:22:43;;;;;;;25.88;15.93;;;16.00;99.90;;;;;;6009498;23;20045;-82
2023/10/09 08:31:02;;;;;;;28.25;16.23;;;16.10;99.90;;;;;;6009902;23;20086;-82
2023/10/09 08:36:04;;;;;;;28.73;17.95;;;16.20;99.90;;;;;;6010638;23;20075;-82
2023/10/09 08:38:33;;;;;;;31.33;19.75;;;16.20;99.90;;;;;;6009643;23;20019;-82
2023/10/09 08:41:16;;;;;;;34.78;16.50;;;16.20;99.90;;;;;;6001659;23;20015;-82
2023/10/09 08:43:50;;;;;;;29.70;20.35;;;16.20;99.90;;;;;;6037736;23;20022;-82
2023/10/09 08:46:20;;;;;;;31.48;16.08;;;16.20;99.90;;;;;;6061801;23;20014;-83
2023/10/09 08:48:46;;;;;;;34.35;15.85;;;16.30;99.90;;;;;;6089529;23;20455;-81
2023/10/09 08:51:14;;;;;;;33.47;15.88;;;16.20;99.90;;;;;;6155980;23;20017;-80
2023/10/09 08:53:43;;;;;;;29.58;16.50;;;16.10;99.90;;;;;;6155383;23;20013;-80
2023/10/09 08:56:10;;;;;;;28.77;19.88;;;16.10;99.90;;;;;;6155083;23;20024;-80
2023/10/09 08:58:40;;;;;;;30.45;16.00;;;16.10;99.90;;;;;;6154774;23;20009;-80
2023/10/09 09:01:06;;;;;;;32.17;16.90;;;16.10;99.90;;;;;;6155229;23;20013;-81
2023/10/09 09:03:38;;;;;;;30.90;18.45;;;16.10;99.90;;;;;;6181994;23;20068;-80
2023/10/09 09:06:04;;;;;;;33.05;21.70;;;16.10;99.90;;;;;;6155359;23;20340;-80
2023/10/09 09:08:36;;;;;;;28.70;20.13;;;16.20;99.90;;;;;;6155321;23;20024;-81
2023/10/09 09:11:14;;;;;;;29.17;16.05;;;16.20;99.90;;;;;;6154893;23;20253;-80
2023/10/09 09:13:41;;;;;;;29.45;17.10;;;16.30;99.90;;;;;;6154821;23;20092;-81
2023/10/09 09:16:29;;;;;;;30.08;15.50;;;16.30;99.90;;;;;;6155365;23;20071;-81
2023/10/09 09:19:17;;;;;;;27.30;14.70;;;16.40;99.90;;;;;;6155373;23;20060;-81
2023/10/09 09:21:59;;;;;;;32.53;15.90;;;16.40;99.90;;;;;;6181857;23;20367;-81
2023/10/09 09:29:37;;;;;;;28.05;23.58;;;16.50;99.90;;;;;;6154809;23;20064;-81
2023/10/09 09:32:15;;;;;;;24.58;15.88;;;16.50;99.90;;;;;;6130925;23;20044;-81
2023/10/09 09:34:49;;;;;;;26.55;13.75;;;16.60;99.90;;;;;;6155015;23;20436;-81
2023/10/09 09:37:28;;;;;;;25.50;15.50;;;16.60;99.90;;;;;;6130524;23;20153;-81
2023/10/09 09:40:00;;;;;;;23.52;15.07;;;16.60;99.90;;;;;;6155470;23;20021;-81
2023/10/09 09:42:27;;;;;;;34.65;18.90;;;16.60;99.90;;;;;;6154221;23;20020;-81
2023/10/09 09:44:55;;;;;;;38.53;21.98;;;16.60;99.90;;;;;;6155294;23;20017;-81
2023/10/09 09:47:26;;;;;;;24.95;14.18;;;16.60;99.90;;;;;;6154916;23;20048;-80
2023/10/09 09:50:12;;;;;;;21.27;14.30;;;16.70;99.90;;;;;;6154841;23;20059;-80
2023/10/09 09:52:38;;;;;;;24.60;13.80;;;16.70;99.90;;;;;;6155538;23;20021;-81
2023/10/09 09:55:14;;;;;;;25.48;14.20;;;16.80;99.90;;;;;;6154450;23;20404;-81
2023/10/09 09:57:40;;;;;;;25.83;15.13;;;16.80;99.90;;;;;;6155162;23;20150;-81
2023/10/09 10:00:27;;;;;;;21.25;13.27;;;16.90;99.90;;;;;;6155165;23;20309;-81
2023/10/09 10:02:57;;;;;;;24.90;14.15;;;16.90;99.90;;;;;;6154861;23;20087;-81
2023/10/09 10:05:29;;;;;;;27.92;14.35;;;16.90;99.90;;;;;;6155191;23;20082;-81
2023/10/09 10:07:57;;;;;;;26.73;14.38;;;16.90;99.90;;;;;;6155011;23;20016;-81
2023/10/09 10:10:38;;;;;;;19.85;15.07;;;17.00;99.90;;;;;;6154503;23;20009;-81
2023/10/09 10:13:14;;;;;;;21.17;13.45;;;17.00;99.90;;;;;;6154909;23;20032;-81
2023/10/09 10:15:56;;;;;;;24.25;13.15;;;17.10;99.90;;;;;;6154811;23;20013;-81
2023/10/09 10:18:23;;;;;;;17.10;11.15;;;16.90;99.90;;;;;;6181692;23;20332;-81
2023/10/09 10:21:33;;;;;;;23.00;15.25;;;17.00;99.90;;;;;;6154848;23;20017;-81
2023/10/09 10:24:11;;;;;;;24.33;14.40;;;17.00;99.90;;;;;;6154970;23;20436;-81
2023/10/09 10:26:37;;;;;;;20.63;13.23;;;17.10;99.90;;;;;;6154494;23;20028;-81
2023/10/09 10:29:22;;;;;;;23.48;12.00;;;17.00;99.90;;;;;;6154917;23;20021;-81
2023/10/09 10:32:11;;;;;;;19.00;13.20;;;17.10;99.90;;;;;;6181516;23;20095;-80
2023/10/09 10:34:55;;;;;;;25.00;13.52;;;17.00;99.90;;;;;;6154897;23;20408;-82
2023/10/09 10:37:50;;;;;;;22.33;13.38;;;17.00;99.90;;;;;;6154915;23;20025;-81
2023/10/09 10:40:38;;;;;;;23.48;14.23;;;17.00;99.90;;;;;;6153687;23;20028;-81
2023/10/09 10:43:13;;;;;;;29.67;25.48;;;16.90;99.90;;;;;;6155306;23;20017;-82
2023/10/09 10:45:45;;;;;;;22.73;14.27;;;16.90;99.90;;;;;;6154634;23;20453;-81
2023/10/09 10:48:37;;;;;;;22.42;12.65;;;16.90;99.90;;;;;;6154759;23;20016;-81
2023/10/09 10:51:06;;;;;;;20.75;13.85;;;16.90;99.90;;;;;;6130478;23;20256;-84
2023/10/09 10:53:47;;;;;;;22.17;12.35;;;16.90;99.90;;;;;;6154809;23;20013;-81
2023/10/09 11:01:53;;;;;;;22.02;13.02;;;16.90;99.90;;;;;;6154725;23;20268;-83
2023/10/09 11:12:39;;;;;;;23.63;12.15;;;16.80;99.90;;;;;;6154618;23;20023;-82
2023/10/09 11:15:44;;;;;;;25.45;11.95;;;16.80;99.90;;;;;;6154882;23;20040;-82
2023/10/09 11:18:20;;;;;;;28.63;14.25;;;16.80;99.90;;;;;;6151199;23;20104;-82
2023/10/09 11:23:37;;;;;;;22.52;13.35;;;16.80;99.90;;;;;;6181039;23;20013;-81
2023/10/09 11:26:53;;;;;;;28.45;14.02;;;16.80;99.90;;;;;;6130062;23;20092;-82
2023/10/09 11:29:16;;;;;;;27.02;13.65;;;16.80;99.90;;;;;;6142616;23;20021;-83
2023/10/09 11:32:04;;;;;;;26.88;13.00;;;16.80;99.90;;;;;;6130157;23;20039;-82
2023/10/09 11:34:31;;;;;;;28.05;12.13;;;16.80;99.90;;;;;;6156343;23;20020;-81
2023/10/09 11:36:58;;;;;;;26.90;12.90;;;16.80;99.90;;;;;;6156606;23;20040;-81
2023/10/09 11:39:32;;;;;;;29.52;12.38;;;16.80;99.90;;;;;;6183746;23;20437;-82
2023/10/09 11:42:05;;;;;;;21.75;14.82;;;16.80;99.90;;;;;;6156832;23;20013;-81
2023/10/09 11:44:39;;;;;;;32.08;12.68;;;16.80;99.90;;;;;;6156312;23;20210;-82
2023/10/09 11:47:23;;;;;;;28.33;14.95;;;16.80;99.90;;;;;;6156213;23;20322;-82
2023/10/09 11:55:00;;;;;;;26.38;14.35;;;16.70;99.90;;;;;;6156589;23;20460;-82
2023/10/09 11:57:33;;;;;;;21.70;10.40;;;16.80;99.90;;;;;;6156477;23;20013;-81
2023/10/09 12:00:46;;;;;;;30.30;11.38;;;16.80;99.90;;;;;;6156560;23;20017;-82
2023/10/09 12:02:52;;;;;;;23.55;16.38;;;16.80;99.90;;;;;;6144545;23;20451;-82
2023/10/09 12:05:18;;;;;;;20.50;10.95;;;16.90;99.90;;;;;;6156511;23;20028;-82
2023/10/09 12:07:54;;;;;;;17.45;10.05;;;17.00;99.90;;;;;;6155592;23;20296;-82
2023/10/09 12:10:25;;;;;;;21.13;12.63;;;17.10;99.90;;;;;;6131776;23;20451;-82
2023/10/09 12:12:57;;;;;;;20.63;13.35;;;17.20;99.90;;;;;;6131894;23;20024;-82
2023/10/09 12:15:24;;;;;;;15.98;9.88;;;17.30;99.90;;;;;;6156297;23;20043;-81
2023/10/09 12:17:53;;;;;;;17.55;8.77;;;17.40;99.90;;;;;;6156165;23;20013;-82
2023/10/09 12:20:30;;;;;;;18.15;9.05;;;17.30;99.90;;;;;;6155343;23;20013;-82
2023/10/09 12:23:00;;;;;;;20.98;12.60;;;17.30;99.90;;;;;;6156378;23;20044;-82
2023/10/09 12:25:26;;;;;;;21.10;8.63;;;17.30;99.90;;;;;;6155907;23;20013;-83
2023/10/09 12:27:56;;;;;;;17.23;9.57;;;17.30;99.90;;;;;;6155905;23;20442;-82
2023/10/09 12:30:26;;;;;;;17.77;10.70;;;17.20;99.90;;;;;;6156685;23;20013;-82
2023/10/09 12:32:53;;;;;;;19.17;8.90;;;17.20;99.90;;;;;;6156333;23;20040;-82
2023/10/09 12:35:19;;;;;;;20.98;8.55;;;17.20;99.90;;;;;;6131299;23;20019;-82
2023/10/09 12:37:45;;;;;;;15.95;9.82;;;17.20;99.90;;;;;;6156362;23;20048;-82
2023/10/09 12:40:11;;;;;;;22.30;8.18;;;17.30;99.90;;;;;;6156739;23;20038;-82
2023/10/09 12:42:37;;;;;;;13.98;11.23;;;17.30;99.90;;;;;;6156268;23;20043;-82
2023/10/09 12:45:09;;;;;;;21.05;9.18;;;17.30;99.90;;;;;;6130607;23;20017;-82
2023/10/09 12:47:38;;;;;;;17.52;10.48;;;17.30;99.90;;;;;;6156317;23;20021;-82
2023/10/09 12:50:10;;;;;;;14.95;8.77;;;17.30;99.90;;;;;;6155876;23;20013;-82
2023/10/09 12:52:37;;;;;;;17.98;8.40;;;17.30;99.90;;;;;;6156756;23;20083;-82
2023/10/09 12:55:07;;;;;;;17.40;11.02;;;17.10;99.90;;;;;;6156664;23;20049;-82
2023/10/09 12:57:33;;;;;;;18.77;9.15;;;17.40;99.90;;;;;;6131182;23;20340;-82
2023/10/09 12:59:59;;;;;;;17.23;7.45;;;17.40;99.90;;;;;;6156182;23;20086;-82
2023/10/09 13:02:30;;;;;;;15.95;12.18;;;17.50;99.90;;;;;;6156524;23;20491;-81
2023/10/09 13:04:57;;;;;;;11.98;8.23;;;17.70;99.90;;;;;;6130463;23;20066;-82
2023/10/09 13:07:23;;;;;;;15.32;6.80;;;17.80;99.90;;;;;;6156771;23;20092;-82
2023/10/09 13:12:34;;;;;;;16.00;7.20;;;18.10;99.90;;;;;;6182911;23;20049;-83
2023/10/09 13:14:59;;;;;;;12.25;7.78;;;18.30;99.90;;;;;;6156744;23;20125;-82
2023/10/09 13:17:28;;;;;;;13.82;10.85;;;18.30;99.90;;;;;;6155752;23;20021;-83
2023/10/09 13:19:54;;;;;;;11.88;9.02;;;18.20;99.90;;;;;;6155187;23;20040;-82
2023/10/09 13:22:21;;;;;;;15.07;8.93;;;18.20;99.90;;;;;;6155616;23;20017;-83
2023/10/09 13:24:48;;;;;;;10.90;8.25;;;18.20;99.90;;;;;;6155886;23;20053;-82
2023/10/09 13:27:21;;;;;;;16.38;10.75;;;18.20;99.90;;;;;;6156046;23;20020;-82
2023/10/09 13:29:47;;;;;;;12.38;9.43;;;18.10;99.90;;;;;;6155657;23;20013;-82
2023/10/09 13:32:14;;;;;;;14.63;10.05;;;18.00;99.90;;;;;;6182573;23;20068;-83
2023/10/09 13:34:46;;;;;;;12.68;9.10;;;18.00;99.90;;;;;;6155400;23;20239;-82
2023/10/09 13:37:13;;;;;;;14.52;10.27;;;17.90;99.90;;;;;;6156080;23;20340;-83
2023/10/09 13:39:51;;;;;;;15.43;10.15;;;17.80;99.90;;;;;;6131735;23;20040;-82
2023/10/09 13:42:17;;;;;;;11.23;8.48;;;17.80;99.90;;;;;;6156231;23;20385;-83
2023/10/09 13:44:43;;;;;;;9.90;8.82;;;17.80;99.90;;;;;;6155674;23;20024;-82
2023/10/09 13:47:18;;;;;;;12.43;8.50;;;17.80;99.90;;;;;;6155444;23;20017;-82
2023/10/09 13:49:45;;;;;;;12.23;10.07;;;17.80;99.90;;;;;;6155598;23;20013;-82
2023/10/09 13:52:17;;;;;;;11.27;10.23;;;17.80;99.90;;;;;;6156082;23;20024;-83
2023/10/09 13:54:47;;;;;;;17.30;10.57;;;17.70;99.90;;;;;;6156562;23;20024;-83
2023/10/09 13:57:14;;;;;;;12.13;10.93;;;17.70;99.90;;;;;;6155101;23;20067;-82
2023/10/09 13:59:51;;;;;;;12.30;11.13;;;17.70;99.90;;;;;;6131244;23;20013;-83
2023/10/09 14:02:18;;;;;;;12.63;11.52;;;17.70;99.90;;;;;;6130728;23;20028;-82
2023/10/09 14:04:51;;;;;;;13.70;9.75;;;17.70;99.90;;;;;;6155698;23;20013;-81
2023/10/09 14:07:17;;;;;;;15.23;10.27;;;17.60;99.90;;;;;;6155946;23;20215;-82
2023/10/09 14:12:10;;;;;;;11.65;10.10;;;17.50;99.90;;;;;;6155419;23;20021;-82
2023/10/09 14:14:46;;;;;;;13.88;10.68;;;17.50;99.90;;;;;;6155639;23;20016;-82
2023/10/09 14:17:13;;;;;;;14.80;12.55;;;17.50;99.90;;;;;;6155139;23;20079;-82
2023/10/09 14:19:50;;;;;;;13.85;12.38;;;17.50;99.90;;;;;;6156504;23;20161;-82
2023/10/09 14:22:24;;;;;;;13.07;10.60;;;17.40;99.90;;;;;;6131304;23;20017;-82
2023/10/09 14:24:57;;;;;;;15.15;10.25;;;17.40;99.90;;;;;;6155769;23;20013;-82
2023/10/09 14:27:35;;;;;;;13.98;10.18;;;17.40;99.90;;;;;;6155860;23;20013;-82
2023/10/09 14:30:01;;;;;;;13.82;10.85;;;17.40;99.90;;;;;;6156010;23;20013;-82
2023/10/09 14:32:33;;;;;;;15.73;10.30;;;17.30;99.90;;;;;;6155056;23;20530;-82
2023/10/09 14:35:02;;;;;;;18.13;11.38;;;17.40;99.90;;;;;;6182139;23;20012;-82
2023/10/09 14:37:31;;;;;;;12.23;10.98;;;17.40;99.90;;;;;;6155175;23;20460;-82
2023/10/09 14:39:58;;;;;;;14.40;11.25;;;17.40;99.90;;;;;;6154800;23;20055;-82
2023/10/09 14:42:27;;;;;;;18.08;9.90;;;17.40;99.90;;;;;;6181599;23;20013;-82
2023/10/09 14:44:53;;;;;;;12.07;9.55;;;17.40;99.90;;;;;;6149750;23;20018;-82
2023/10/09 14:47:18;;;;;;;21.17;11.15;;;17.40;99.90;;;;;;6149957;23;20341;-82
2023/10/09 14:49:48;;;;;;;13.73;10.93;;;17.30;99.90;;;;;;6125704;23;20024;-82
2023/10/09 14:52:16;;;;;;;14.18;10.90;;;17.40;99.90;;;;;;6150459;23;20017;-82
2023/10/09 14:54:44;;;;;;;14.85;11.63;;;17.40;99.90;;;;;;6150995;23;20017;-83
2023/10/09 14:57:11;;;;;;;13.60;12.20;;;17.40;99.90;;;;;;6125784;23;20017;-82
2023/10/09 14:59:38;;;;;;;13.00;11.70;;;17.40;99.90;;;;;;6150088;23;20020;-82
2023/10/09 15:02:05;;;;;;;15.02;12.68;;;17.40;99.90;;;;;;6150114;23;20022;-82
2023/10/09 15:04:31;;;;;;;15.40;12.57;;;17.30;99.90;;;;;;6150065;23;20009;-83
2023/10/09 15:06:57;;;;;;;20.83;19.00;;;17.30;99.90;;;;;;6151575;23;20017;-83
2023/10/09 15:09:23;;;;;;;12.77;11.45;;;17.20;99.90;;;;;;6150115;23;20016;-82
2023/10/09 15:11:50;;;;;;;14.07;11.13;;;17.20;99.90;;;;;;6150165;23;20024;-82
2023/10/09 15:14:18;;;;;;;14.02;11.95;;;17.20;99.90;;;;;;6149640;23;20053;-82
2023/10/09 15:16:45;;;;;;;13.65;11.40;;;17.10;99.90;;;;;;6125611;23;20349;-83
2023/10/09 15:19:12;;;;;;;16.15;10.98;;;17.10;99.90;;;;;;6152688;23;20333;-83
2023/10/09 15:21:43;;;;;;;12.50;11.23;;;17.10;99.90;;;;;;6150294;23;20013;-82
2023/10/09 15:24:16;;;;;;;13.48;10.85;;;17.10;99.90;;;;;;6125887;23;20118;-82
2023/10/09 15:26:42;;;;;;;14.77;13.20;;;17.00;99.90;;;;;;6150356;23;20018;-83
2023/10/09 15:29:09;;;;;;;18.67;12.90;;;17.00;99.90;;;;;;6149814;23;20028;-83
2023/10/09 15:31:36;;;;;;;12.40;11.32;;;17.00;99.90;;;;;;6150197;23;20014;-83
2023/10/09 15:34:02;;;;;;;13.27;10.98;;;17.10;99.90;;;;;;6150154;23;20053;-83
2023/10/09 15:36:32;;;;;;;14.15;11.32;;;17.10;99.90;;;;;;6150255;23;20045;-82